Time;durP1;ratioP1;P1;durP2;ratioP2;P2;SDS_P1;SDS_P2;PMS_P1;PMS_P2;Temp;Humidity;BMP_temperature;BMP_pressure;BME280_temperature;BME280_humidity;BME280_pressure;Samples;Min_cycle;Max_cycle;Signal;HPM_P1;HPM_P2
2023/12/28 00:00:28;;;;;;;;;;;13.60;99.90;;;;;;5089594;28;20321;-86
2023/12/28 00:02:55;;;;;;;;;;;13.40;99.90;;;;;;5089686;28;19908;-87
2023/12/28 00:05:21;;;;;;;;;;;13.40;99.90;;;;;;5069465;28;19948;-86
2023/12/28 00:07:46;;;;;;;;;;;13.40;99.90;;;;;;5072535;28;19987;-86
2023/12/28 00:10:12;;;;;;;;;;;13.40;99.90;;;;;;5073995;28;20378;-85
2023/12/28 00:12:38;;;;;;;;;;;13.40;99.90;;;;;;5074015;28;19958;-87
2023/12/28 00:15:04;;;;;;;;;;;13.40;99.90;;;;;;5074463;28;19935;-87
2023/12/28 00:17:30;;;;;;;;;;;13.30;99.90;;;;;;5074602;28;19909;-87
2023/12/28 00:19:56;;;;;;;;;;;13.30;99.90;;;;;;5072684;28;19909;-87
2023/12/28 00:22:22;;;;;;;;;;;13.30;99.90;;;;;;5072470;28;19937;-87
2023/12/28 00:24:48;;;;;;;;;;;13.40;99.90;;;;;;5072713;28;20036;-87
2023/12/28 00:27:14;;;;;;;;;;;13.40;99.90;;;;;;5073930;28;20005;-87
2023/12/28 00:29:41;;;;;;;;;;;13.50;99.90;;;;;;5074000;28;19920;-87
2023/12/28 00:32:06;;;;;;;;;;;13.50;99.90;;;;;;5074065;28;19908;-87
2023/12/28 00:34:32;;;;;;;;;;;13.50;99.90;;;;;;5058167;28;19974;-87
2023/12/28 00:36:58;;;;;;;;;;;13.40;99.90;;;;;;5052213;28;19925;-87
2023/12/28 00:39:24;;;;;;;;;;;13.40;99.90;;;;;;5053066;28;20353;-87
2023/12/28 00:41:50;;;;;;;;;;;13.40;99.90;;;;;;5052377;28;19959;-87
2023/12/28 00:44:15;;;;;;;;;;;13.40;99.90;;;;;;5052560;28;19920;-87
2023/12/28 00:46:41;;;;;;;;;;;13.40;99.90;;;;;;5052389;28;20069;-86
2023/12/28 00:49:08;;;;;;;;;;;13.40;99.90;;;;;;5051447;28;20253;-85
2023/12/28 00:51:34;;;;;;;;;;;13.40;99.90;;;;;;5051423;28;19909;-86
2023/12/28 00:54:00;;;;;;;;;;;13.40;99.90;;;;;;5051426;28;19916;-86
2023/12/28 00:56:25;;;;;;;;;;;13.40;99.90;;;;;;5053081;28;20261;-86
2023/12/28 00:58:51;;;;;;;;;;;13.40;99.90;;;;;;5051214;28;19931;-85
2023/12/28 01:01:17;;;;;;;;;;;13.40;99.90;;;;;;5053263;28;19971;-86
2023/12/28 01:03:43;;;;;;;;;;;13.40;99.90;;;;;;5068215;28;20368;-85
2023/12/28 01:06:08;;;;;;;;;;;13.40;99.90;;;;;;5093061;28;19908;-85
2023/12/28 01:08:34;;;;;;;;;;;13.40;99.90;;;;;;5091444;28;20222;-85
2023/12/28 01:11:01;;;;;;;;;;;13.40;99.90;;;;;;5091607;28;20020;-85
2023/12/28 01:13:28;;;;;;;;;;;13.40;99.90;;;;;;5091541;28;20224;-86
2023/12/28 01:15:54;;;;;;;;;;;13.40;99.90;;;;;;5092827;28;20320;-86
2023/12/28 01:18:19;;;;;;;;;;;13.40;99.90;;;;;;5092493;28;19955;-86
2023/12/28 01:20:45;;;;;;;;;;;13.50;99.90;;;;;;5091284;28;19915;-86
2023/12/28 01:23:11;;;;;;;;;;;13.50;99.90;;;;;;5091294;28;19916;-85
2023/12/28 01:25:37;;;;;;;;;;;13.50;99.90;;;;;;5092656;28;19915;-85
2023/12/28 01:28:03;;;;;;;;;;;13.50;99.90;;;;;;5092980;28;19916;-86
2023/12/28 01:30:29;;;;;;;;;;;13.50;99.90;;;;;;5092491;28;19908;-80
2023/12/28 01:32:55;;;;;;;;;;;13.50;99.90;;;;;;5092361;28;19919;-86
2023/12/28 01:35:20;;;;;;;;;;;13.50;99.90;;;;;;5091063;28;19927;-86
2023/12/28 01:37:46;;;;;;;;;;;13.50;99.90;;;;;;5092167;28;19992;-85
2023/12/28 01:40:12;;;;;;;;;;;13.50;99.90;;;;;;5090674;28;20015;-86
2023/12/28 01:42:39;;;;;;;;;;;13.50;99.90;;;;;;5092097;28;19915;-86
2023/12/28 01:45:05;;;;;;;;;;;13.50;99.90;;;;;;5092422;28;20011;-85
2023/12/28 01:47:31;;;;;;;;;;;13.50;99.90;;;;;;5090896;28;19912;-85
2023/12/28 01:49:57;;;;;;;;;;;13.50;99.90;;;;;;5090815;28;19962;-86
2023/12/28 01:52:23;;;;;;;;;;;13.50;99.90;;;;;;5090574;28;20308;-85
2023/12/28 01:54:49;;;;;;;;;;;13.50;99.90;;;;;;5091906;28;20279;-85
2023/12/28 01:57:15;;;;;;;;;;;13.50;99.90;;;;;;5090728;28;19908;-85
2023/12/28 01:59:41;;;;;;;;;;;13.50;99.90;;;;;;5090207;28;19920;-85
2023/12/28 02:02:07;;;;;;;;;;;13.50;99.90;;;;;;5090302;28;19930;-86
2023/12/28 02:04:33;;;;;;;;;;;13.50;99.90;;;;;;5090409;28;20279;-86
2023/12/28 02:07:00;;;;;;;;;;;13.50;99.90;;;;;;5091719;28;19920;-86
2023/12/28 02:09:26;;;;;;;;;;;13.50;99.90;;;;;;5090487;28;19923;-85
2023/12/28 02:11:52;;;;;;;;;;;13.50;99.90;;;;;;5090422;28;19919;-86
2023/12/28 02:14:18;;;;;;;;;;;13.50;99.90;;;;;;5090159;28;19926;-86
2023/12/28 02:16:54;;;;;;;;;;;13.40;99.90;;;;;;5092052;28;19992;-85
2023/12/28 02:19:31;;;;;;;;;;;13.40;99.90;;;;;;5091763;28;20033;-85
2023/12/28 02:21:58;;;;;;;;;;;13.50;99.90;;;;;;5090429;28;20004;-86
2023/12/28 02:24:24;;;;;;;;;;;13.50;99.90;;;;;;5090427;28;20283;-86
2023/12/28 02:26:50;;;;;;;;;;;13.60;99.90;;;;;;5090461;28;19953;-86
2023/12/28 02:29:16;;;;;;;;;;;13.50;99.90;;;;;;5089537;28;19912;-84
2023/12/28 02:31:46;;;;;;;;;;;13.40;99.90;;;;;;5090493;28;20352;-86
2023/12/28 02:34:19;;;;;;;;;;;13.50;99.90;;;;;;5078365;28;19909;-81
2023/12/28 02:36:45;;;;;;;;;;;13.60;99.90;;;;;;5069448;28;20035;-86
2023/12/28 02:39:14;;;;;;;;;;;13.50;99.90;;;;;;5069886;28;20365;-85
2023/12/28 02:41:40;;;;;;;;;;;13.50;99.90;;;;;;5069693;28;20007;-86
2023/12/28 02:44:06;;;;;;;;;;;13.50;99.90;;;;;;5071465;28;19908;-86
2023/12/28 02:46:33;;;;;;;;;;;13.50;99.90;;;;;;5071193;28;19949;-85
2023/12/28 02:48:59;;;;;;;;;;;13.40;99.90;;;;;;5070989;28;20318;-85
2023/12/28 02:51:25;;;;;;;;;;;13.40;99.90;;;;;;5069232;28;19920;-86
2023/12/28 02:53:51;;;;;;;;;;;13.40;99.90;;;;;;5071023;28;19966;-86
2023/12/28 02:56:17;;;;;;;;;;;13.40;99.90;;;;;;5069604;28;19915;-86
2023/12/28 02:58:42;;;;;;;;;;;13.40;99.90;;;;;;5069403;28;20367;-85
2023/12/28 03:01:08;;;;;;;;;;;13.40;99.90;;;;;;5069511;28;19942;-86
2023/12/28 03:03:34;;;;;;;;;;;13.40;99.90;;;;;;5077312;28;20336;-86
2023/12/28 03:06:00;;;;;;;;;;;13.40;99.90;;;;;;5089472;28;19908;-87
2023/12/28 03:08:26;;;;;;;;;;;13.40;99.90;;;;;;5090730;28;19985;-86
2023/12/28 03:10:52;;;;;;;;;;;13.40;99.90;;;;;;5091138;28;19912;-85
2023/12/28 03:13:18;;;;;;;;;;;13.40;99.90;;;;;;5091531;28;19994;-86
2023/12/28 03:15:44;;;;;;;;;;;13.40;99.90;;;;;;5091024;28;20061;-83
2023/12/28 03:18:10;;;;;;;;;;;13.30;99.90;;;;;;5089457;28;19961;-86
2023/12/28 03:20:35;;;;;;;;;;;13.30;99.90;;;;;;5091310;28;19908;-85
2023/12/28 03:23:01;;;;;;;;;;;13.30;99.90;;;;;;5089655;28;19916;-84
2023/12/28 03:25:27;;;;;;;;;;;13.30;99.90;;;;;;5089069;28;19908;-86
2023/12/28 03:27:54;;;;;;;;;;;13.30;99.90;;;;;;5090673;28;19920;-86
2023/12/28 03:30:20;;;;;;;;;;;13.30;99.90;;;;;;5089316;28;19908;-86
2023/12/28 03:32:46;;;;;;;;;;;13.30;99.90;;;;;;5090385;28;19908;-85
2023/12/28 03:35:12;;;;;;;;;;;13.30;99.90;;;;;;5090772;28;19912;-85
2023/12/28 03:37:38;;;;;;;;;;;13.30;99.90;;;;;;5090695;28;20388;-86
2023/12/28 03:40:04;;;;;;;;;;;13.30;99.90;;;;;;5091031;28;19947;-86
2023/12/28 03:42:31;;;;;;;;;;;13.20;99.90;;;;;;5095049;28;19957;-87
2023/12/28 03:44:57;;;;;;;;;;;13.30;99.90;;;;;;5093191;28;19912;-87
2023/12/28 03:47:24;;;;;;;;;;;13.20;99.90;;;;;;5092855;28;19919;-86
2023/12/28 03:49:49;;;;;;;;;;;13.20;99.90;;;;;;5093901;28;19916;-86
2023/12/28 03:52:15;;;;;;;;;;;13.20;99.90;;;;;;5093323;28;19924;-86
2023/12/28 03:54:41;;;;;;;;;;;13.20;99.90;;;;;;5095115;28;19919;-86
2023/12/28 03:57:07;;;;;;;;;;;13.20;99.90;;;;;;5093591;28;19941;-85
2023/12/28 03:59:33;;;;;;;;;;;13.20;99.90;;;;;;5093930;28;19908;-85
2023/12/28 04:01:59;;;;;;;;;;;13.10;99.90;;;;;;5096260;28;19908;-85
2023/12/28 04:04:25;;;;;;;;;;;13.10;99.90;;;;;;5081104;28;19958;-86
2023/12/28 04:06:51;;;;;;;;;;;13.00;99.90;;;;;;5074022;28;20284;-85
2023/12/28 04:09:17;;;;;;;;;;;12.90;99.90;;;;;;5074829;28;19946;-85
2023/12/28 04:11:43;;;;;;;;;;;12.90;99.90;;;;;;5075274;28;19918;-85
2023/12/28 04:14:09;;;;;;;;;;;12.90;99.90;;;;;;5073950;28;20356;-85
2023/12/28 04:16:34;;;;;;;;;;;13.00;99.90;;;;;;5073172;28;19916;-85
2023/12/28 04:19:00;;;;;;;;;;;12.90;99.90;;;;;;5073213;28;20273;-84
2023/12/28 04:21:26;;;;;;;;;;;12.90;99.90;;;;;;5073618;28;20016;-85
2023/12/28 04:23:52;;;;;;;;;;;12.90;99.90;;;;;;5073460;28;19934;-84
2023/12/28 04:26:19;;;;;;;;;;;12.90;99.90;;;;;;5075393;28;19916;-85
2023/12/28 04:28:45;;;;;;;;;;;12.80;99.90;;;;;;5075264;28;19962;-83
2023/12/28 04:31:10;;;;;;;;;;;12.90;99.90;;;;;;5073646;28;19952;-86
2023/12/28 04:33:36;;;;;;;;;;;12.80;99.90;;;;;;5067642;28;19912;-85
2023/12/28 04:36:04;;;;;;;;;;;12.80;99.90;;;;;;5053798;28;20014;-84
2023/12/28 04:38:30;;;;;;;;;;;12.90;99.90;;;;;;5055007;28;19913;-86
2023/12/28 04:40:56;;;;;;;;;;;12.80;99.90;;;;;;5054069;28;20285;-87
2023/12/28 04:43:23;;;;;;;;;;;12.80;99.90;;;;;;5053726;28;19913;-87
2023/12/28 04:45:49;;;;;;;;;;;12.90;99.90;;;;;;5053408;28;19986;-87
2023/12/28 04:48:15;;;;;;;;;;;12.90;99.90;;;;;;5054982;28;19961;-87
2023/12/28 04:50:41;;;;;;;;;;;12.90;99.90;;;;;;5054943;28;20119;-87
2023/12/28 04:53:08;;;;;;;;;;;12.90;99.90;;;;;;5055032;28;19909;-87
2023/12/28 04:55:34;;;;;;;;;;;12.80;99.90;;;;;;5054391;28;19916;-87
2023/12/28 04:58:00;;;;;;;;;;;12.80;99.90;;;;;;5055313;28;19909;-87
2023/12/28 05:00:26;;;;;;;;;;;12.80;99.90;;;;;;5055508;28;19924;-85
2023/12/28 05:02:51;;;;;;;;;;;12.80;99.90;;;;;;5054666;28;20365;-87
2023/12/28 05:05:17;;;;;;;;;;;12.80;99.90;;;;;;5094436;28;19909;-84
2023/12/28 05:07:44;;;;;;;;;;;12.80;99.90;;;;;;5095341;28;19912;-86
2023/12/28 05:10:10;;;;;;;;;;;12.80;99.90;;;;;;5094121;28;20319;-87
2023/12/28 05:12:36;;;;;;;;;;;12.80;99.90;;;;;;5094346;28;19922;-87
2023/12/28 05:15:01;;;;;;;;;;;12.80;99.90;;;;;;5095757;28;19970;-87
2023/12/28 05:17:27;;;;;;;;;;;12.80;99.90;;;;;;5094489;28;19915;-87
2023/12/28 05:19:53;;;;;;;;;;;12.70;99.90;;;;;;5096015;28;19962;-86
2023/12/28 05:22:20;;;;;;;;;;;12.80;99.90;;;;;;5094418;28;20264;-86
2023/12/28 05:24:45;;;;;;;;;;;12.80;99.90;;;;;;5094744;28;19908;-87
2023/12/28 05:27:11;;;;;;;;;;;12.80;99.90;;;;;;5094468;28;19912;-87
2023/12/28 05:29:37;;;;;;;;;;;12.80;99.90;;;;;;5094634;28;19973;-87
2023/12/28 05:32:03;;;;;;;;;;;12.80;99.90;;;;;;5094447;28;19912;-87
2023/12/28 05:34:30;;;;;;;;;;;12.80;99.90;;;;;;5094521;28;20304;-87
2023/12/28 05:36:56;;;;;;;;;;;12.80;99.90;;;;;;5094007;28;19920;-87
2023/12/28 05:39:22;;;;;;;;;;;12.80;99.90;;;;;;5094306;28;20007;-85
2023/12/28 05:41:50;;;;;;;;;;;12.70;99.90;;;;;;5094326;28;19909;-86
2023/12/28 05:44:16;;;;;;;;;;;12.70;99.90;;;;;;5095837;28;19914;-87
2023/12/28 05:46:42;;;;;;;;;;;12.80;99.90;;;;;;5094792;28;20379;-87
2023/12/28 05:49:08;;;;;;;;;;;12.70;99.90;;;;;;5095511;28;19923;-87
2023/12/28 05:51:39;;;;;;;;;;;12.60;99.90;;;;;;5095145;28;19909;-86
2023/12/28 05:54:06;;;;;;;;;;;12.70;99.90;;;;;;5094015;28;19973;-86
2023/12/28 05:56:31;;;;;;;;;;;12.70;99.90;;;;;;5094352;28;19958;-86
2023/12/28 05:58:57;;;;;;;;;;;12.60;99.90;;;;;;5093269;28;19920;-86
2023/12/28 06:01:23;;;;;;;;;;;12.60;99.90;;;;;;5094748;28;19908;-86
2023/12/28 06:03:50;;;;;;;;;;;12.60;99.90;;;;;;5095883;28;20049;-86
2023/12/28 06:06:16;;;;;;;;;;;12.60;99.90;;;;;;5093370;28;19915;-87
2023/12/28 06:08:42;;;;;;;;;;;12.60;99.90;;;;;;5094128;28;20019;-87
2023/12/28 06:11:08;;;;;;;;;;;12.70;99.90;;;;;;5094302;28;19996;-87
2023/12/28 06:13:33;;;;;;;;;;;12.60;99.90;;;;;;5092941;28;19909;-87
2023/12/28 06:15:59;;;;;;;;;;;12.70;99.90;;;;;;5093997;28;19908;-86
2023/12/28 06:18:25;;;;;;;;;;;12.70;99.90;;;;;;5094637;28;20336;-86
2023/12/28 06:20:51;;;;;;;;;;;12.70;99.90;;;;;;5094873;28;20015;-86
2023/12/28 06:23:17;;;;;;;;;;;12.70;99.90;;;;;;5094478;28;19908;-87
2023/12/28 06:25:43;;;;;;;;;;;12.70;99.90;;;;;;5093170;28;20002;-86
2023/12/28 06:28:08;;;;;;;;;;;12.70;99.90;;;;;;5092894;28;20003;-87
2023/12/28 06:30:34;;;;;;;;;;;12.70;99.90;;;;;;5092695;28;20368;-87
2023/12/28 06:33:00;;;;;;;;;;;12.70;99.90;;;;;;5094098;28;19961;-87
2023/12/28 06:35:26;;;;;;;;;;;12.70;99.90;;;;;;5093116;28;19908;-86
2023/12/28 06:37:52;;;;;;;;;;;12.70;99.90;;;;;;5094234;28;20367;-86
2023/12/28 06:40:17;;;;;;;;;;;12.70;99.90;;;;;;5092900;28;19908;-85
2023/12/28 06:42:43;;;;;;;;;;;12.60;99.90;;;;;;5094275;28;20278;-87
2023/12/28 06:45:10;;;;;;;;;;;12.70;99.90;;;;;;5093828;28;19957;-87
2023/12/28 06:47:35;;;;;;;;;;;12.70;99.90;;;;;;5093874;28;19912;-86
2023/12/28 06:50:01;;;;;;;;;;;12.80;99.90;;;;;;5093188;28;19908;-86
2023/12/28 06:52:27;;;;;;;;;;;12.80;99.90;;;;;;5091791;28;19909;-87
2023/12/28 06:54:53;;;;;;;;;;;12.80;99.90;;;;;;5091824;28;20368;-87
2023/12/28 06:57:19;;;;;;;;;;;12.80;99.90;;;;;;5091870;28;20359;-87
2023/12/28 06:59:45;;;;;;;;;;;12.70;99.90;;;;;;5091563;28;20010;-87
2023/12/28 07:02:11;;;;;;;;;;;12.70;99.90;;;;;;5091893;28;19955;-87
2023/12/28 07:04:38;;;;;;;;;;;12.70;99.90;;;;;;5076704;28;19908;-87
2023/12/28 07:07:03;;;;;;;;;;;12.70;99.90;;;;;;5072547;28;19920;-86
2023/12/28 07:09:29;;;;;;;;;;;12.80;99.90;;;;;;5072878;28;19913;-86
2023/12/28 07:11:56;;;;;;;;;;;12.90;99.90;;;;;;5072419;28;20008;-87
2023/12/28 07:14:22;;;;;;;;;;;12.90;99.90;;;;;;5071038;28;20273;-86
2023/12/28 07:16:47;;;;;;;;;;;12.90;99.90;;;;;;5071565;28;20309;-87
2023/12/28 07:19:13;;;;;;;;;;;13.00;99.90;;;;;;5071869;28;19909;-87
2023/12/28 07:21:39;;;;;;;;;;;13.00;99.90;;;;;;5071869;28;20369;-86
2023/12/28 07:24:05;;;;;;;;;;;13.00;99.90;;;;;;5073377;28;19908;-87
2023/12/28 07:26:31;;;;;;;;;;;13.00;99.90;;;;;;5071716;28;19909;-86
2023/12/28 07:28:57;;;;;;;;;;;13.00;99.90;;;;;;5072961;28;19917;-87
2023/12/28 07:31:26;;;;;;;;;;;13.00;99.90;;;;;;5073346;28;20003;-87
2023/12/28 07:33:54;;;;;;;;;;;12.90;99.90;;;;;;5082503;28;19908;-87
2023/12/28 07:36:21;;;;;;;;;;;13.00;99.90;;;;;;5091923;28;20331;-87
2023/12/28 07:38:47;;;;;;;;;;;13.00;99.90;;;;;;5092063;28;19915;-86
2023/12/28 07:41:13;;;;;;;;;;;13.10;99.90;;;;;;5092756;28;19912;-88
2023/12/28 07:43:39;;;;;;;;;;;13.00;99.90;;;;;;5094229;28;19915;-87
2023/12/28 07:46:05;;;;;;;;;;;13.10;99.90;;;;;;5093807;28;19999;-87
2023/12/28 07:48:30;;;;;;;;;;;13.20;99.90;;;;;;5093301;28;19924;-86
2023/12/28 07:50:57;;;;;;;;;;;13.20;99.90;;;;;;5092562;28;20050;-87
2023/12/28 07:53:23;;;;;;;;;;;13.30;99.90;;;;;;5093209;28;19924;-86
2023/12/28 07:55:50;;;;;;;;;;;13.30;99.90;;;;;;5093541;28;20014;-87
2023/12/28 07:58:16;;;;;;;;;;;13.40;99.90;;;;;;5091954;28;19914;-86
2023/12/28 08:00:42;;;;;;;;;;;13.30;99.90;;;;;;5092261;28;19912;-87
2023/12/28 08:03:08;;;;;;;;;;;13.30;99.90;;;;;;5089717;28;19912;-86
2023/12/28 08:05:35;;;;;;;;;;;13.30;99.90;;;;;;5072409;28;19908;-86
2023/12/28 08:08:01;;;;;;;;;;;13.40;99.90;;;;;;5072248;28;19930;-87
2023/12/28 08:10:26;;;;;;;;;;;13.40;99.90;;;;;;5073011;28;20279;-88
2023/12/28 08:12:52;;;;;;;;;;;13.40;99.90;;;;;;5071508;28;19913;-87
2023/12/28 08:15:20;;;;;;;;;;;13.50;99.90;;;;;;5071640;28;19915;-87
2023/12/28 08:17:45;;;;;;;;;;;13.50;99.90;;;;;;5071970;28;19931;-86
2023/12/28 08:20:11;;;;;;;;;;;13.60;99.90;;;;;;5072704;28;19912;-86
2023/12/28 08:22:37;;;;;;;;;;;13.60;99.90;;;;;;5071787;28;19914;-86
2023/12/28 08:25:03;;;;;;;;;;;13.70;99.90;;;;;;5072628;28;19913;-86
2023/12/28 08:27:30;;;;;;;;;;;13.80;99.90;;;;;;5074512;28;19916;-86
2023/12/28 08:29:55;;;;;;;;;;;13.90;99.90;;;;;;5074910;28;19916;-87
2023/12/28 08:32:21;;;;;;;;;;;13.90;99.90;;;;;;5077560;28;19940;-87
2023/12/28 08:34:47;;;;;;;;;;;13.90;99.90;;;;;;5091370;28;19909;-87
2023/12/28 08:37:14;;;;;;;;;;;14.00;99.90;;;;;;5096008;28;19935;-87
2023/12/28 08:39:40;;;;;;;;;;;14.10;99.90;;;;;;5096444;28;19912;-86
2023/12/28 08:42:06;;;;;;;;;;;14.20;99.90;;;;;;5095499;28;19969;-87
2023/12/28 08:44:32;;;;;;;;;;;14.30;99.90;;;;;;5096414;28;19952;-86
2023/12/28 08:46:58;;;;;;;;;;;14.30;99.90;;;;;;5095263;28;19908;-87
2023/12/28 08:49:25;;;;;;;;;;;14.50;99.90;;;;;;5094974;28;20395;-87
2023/12/28 08:51:51;;;;;;;;;;;14.60;99.90;;;;;;5095777;28;19908;-87
2023/12/28 08:54:17;;;;;;;;;;;14.70;99.90;;;;;;5094232;28;19916;-88
2023/12/28 08:56:43;;;;;;;;;;;14.80;99.90;;;;;;5095578;28;19946;-85
2023/12/28 08:59:10;;;;;;;;;;;14.80;99.90;;;;;;5094782;28;19912;-86
2023/12/28 09:01:36;;;;;;;;;;;14.80;99.90;;;;;;5094259;28;19981;-87
2023/12/28 09:04:02;;;;;;;;;;;14.80;99.90;;;;;;5084144;28;20296;-87
2023/12/28 09:06:27;;;;;;;;;;;14.80;99.90;;;;;;5074026;28;19968;-87
2023/12/28 09:08:53;;;;;;;;;;;14.80;99.90;;;;;;5073609;28;20367;-86
2023/12/28 09:11:21;;;;;;;;;;;14.80;99.90;;;;;;5073650;28;19908;-87
2023/12/28 09:13:47;;;;;;;;;;;14.80;99.90;;;;;;5073839;28;19908;-86
2023/12/28 09:16:13;;;;;;;;;;;14.80;99.90;;;;;;5073657;28;19943;-86
2023/12/28 09:18:39;;;;;;;;;;;14.80;99.90;;;;;;5074150;28;20004;-87
2023/12/28 09:21:06;;;;;;;;;;;14.90;99.90;;;;;;5074502;28;19908;-87
2023/12/28 09:23:32;;;;;;;;;;;14.90;99.90;;;;;;5074814;28;19916;-87
2023/12/28 09:25:58;;;;;;;;;;;15.00;99.90;;;;;;5074900;28;20392;-86
2023/12/28 09:28:24;;;;;;;;;;;14.90;99.90;;;;;;5073292;28;20009;-87
2023/12/28 09:30:50;;;;;;;;;;;14.90;99.90;;;;;;5073637;28;19913;-88
2023/12/28 09:33:16;;;;;;;;;;;14.90;99.90;;;;;;5070823;28;19916;-87
2023/12/28 09:35:42;;;;;;;;;;;14.90;99.90;;;;;;5053199;28;19983;-87
2023/12/28 09:38:08;;;;;;;;;;;14.90;99.90;;;;;;5054417;28;19917;-88
2023/12/28 09:40:36;;;;;;;;;;;14.90;99.90;;;;;;5052970;28;19936;-86
2023/12/28 09:43:20;;;;;;;;;;;15.00;99.90;;;;;;5052717;28;20368;-88
2023/12/28 09:45:47;;;;;;;;;;;15.00;99.90;;;;;;5054631;28;19970;-87
2023/12/28 09:48:15;;;;;;;;;;;15.00;99.90;;;;;;5053300;28;19921;-87
2023/12/28 09:50:45;;;;;;;;;;;15.10;99.90;;;;;;5055043;28;19954;-88
2023/12/28 09:53:11;;;;;;;;;;;15.20;99.90;;;;;;5055607;28;19916;-86
2023/12/28 09:55:37;;;;;;;;;;;15.20;99.90;;;;;;5054130;28;19909;-88
2023/12/28 09:58:05;;;;;;;;;;;15.20;99.90;;;;;;5053399;28;20385;-87
2023/12/28 10:00:31;;;;;;;;;;;15.30;99.90;;;;;;5054431;28;19909;-87
2023/12/28 10:02:57;;;;;;;;;;;15.30;99.90;;;;;;5055887;28;19912;-87
2023/12/28 10:05:23;;;;;;;;;;;15.20;99.90;;;;;;5095314;28;19991;-86
2023/12/28 10:07:50;;;;;;;;;;;15.20;99.90;;;;;;5093794;28;19912;-86
2023/12/28 10:10:16;;;;;;;;;;;15.10;99.90;;;;;;5095595;28;19933;-87
2023/12/28 10:12:42;;;;;;;;;;;15.20;99.90;;;;;;5095139;28;19944;-86
2023/12/28 10:15:09;;;;;;;;;;;15.00;99.90;;;;;;5094700;28;19965;-85
2023/12/28 10:17:35;;;;;;;;;;;15.00;99.90;;;;;;5093779;28;19954;-87
2023/12/28 10:20:08;;;;;;;;;;;15.00;99.90;;;;;;5094776;28;19912;-86
2023/12/28 10:22:34;;;;;;;;;;;15.00;99.90;;;;;;5093121;28;20387;-87
2023/12/28 10:25:02;;;;;;;;;;;15.00;99.90;;;;;;5094061;28;19912;-87
2023/12/28 10:27:28;;;;;;;;;;;14.90;99.90;;;;;;5094919;28;19960;-87
2023/12/28 10:29:55;;;;;;;;;;;14.90;99.90;;;;;;5093316;28;19908;-86
2023/12/28 10:32:22;;;;;;;;;;;14.90;99.90;;;;;;5094511;28;19919;-85
2023/12/28 10:34:48;;;;;;;;;;;15.00;99.90;;;;;;5092630;28;19908;-83
2023/12/28 10:37:15;;;;;;;;;;;15.00;99.90;;;;;;5092743;28;19965;-87
2023/12/28 10:39:44;;;;;;;;;;;15.00;99.90;;;;;;5094133;28;19908;-86
2023/12/28 10:42:14;;;;;;;;;;;15.10;99.90;;;;;;5092540;28;19957;-85
2023/12/28 10:44:42;;;;;;;;;;;15.10;99.90;;;;;;5091965;28;19908;-85
2023/12/28 10:47:12;;;;;;;;;;;15.20;99.90;;;;;;5092974;28;20011;-87
2023/12/28 10:49:39;;;;;;;;;;;15.30;99.90;;;;;;5093465;28;19927;-83
2023/12/28 10:52:06;;;;;;;;;;;15.30;99.90;;;;;;5093057;28;19909;-87
2023/12/28 10:54:47;;;;;;;;;;;15.50;99.90;;;;;;5092736;28;20003;-87
2023/12/28 10:57:32;;;;;;;;;;;15.70;99.90;;;;;;5094198;28;19909;-88
2023/12/28 11:00:08;;;;;;;;;;;15.80;99.90;;;;;;5093201;28;19962;-87
2023/12/28 11:02:54;;;;;;;;;;;16.00;99.90;;;;;;5092668;28;19995;-87
2023/12/28 11:05:21;;;;;;;;;;;16.10;99.90;;;;;;5093394;28;19912;-88
2023/12/28 11:07:48;;;;;;;;;;;16.30;99.90;;;;;;5092454;28;20015;-88
2023/12/28 11:10:14;;;;;;;;;;;16.50;99.90;;;;;;5075941;28;19912;-87
2023/12/28 11:12:45;;;;;;;;;;;16.70;99.90;;;;;;5093477;28;21565;-88
2023/12/28 11:15:11;;;;;;;;;;;16.80;99.90;;;;;;5094809;28;19909;-87
2023/12/28 11:17:37;;;;;;;;;;;16.90;99.90;;;;;;5094773;28;20345;-87
2023/12/28 11:20:05;;;;;;;;;;;17.00;99.90;;;;;;5092400;28;20360;-87
2023/12/28 11:22:31;;;;;;;;;;;17.10;99.90;;;;;;5093634;28;20364;-88
2023/12/28 11:24:58;;;;;;;;;;;17.20;99.90;;;;;;5093935;28;19987;-88
2023/12/28 11:27:24;;;;;;;;;;;17.20;99.90;;;;;;5095223;28;20025;-88
2023/12/28 11:29:52;;;;;;;;;;;17.30;99.90;;;;;;5094407;28;20007;-89
2023/12/28 11:32:20;;;;;;;;;;;17.30;99.90;;;;;;5092653;28;19908;-87
2023/12/28 11:34:57;;;;;;;;;;;17.20;99.90;;;;;;5077365;28;20344;-88
2023/12/28 11:37:23;;;;;;;;;;;17.30;99.90;;;;;;5072660;28;19924;-87
2023/12/28 11:39:49;;;;;;;;;;;17.20;99.90;;;;;;5073110;28;19943;-89
2023/12/28 11:42:20;;;;;;;;;;;17.00;99.90;;;;;;5072938;28;19909;-88
2023/12/28 11:44:47;;;;;;;;;;;17.00;99.90;;;;;;5072962;28;20011;-88
2023/12/28 11:47:17;;;;;;;;;;;17.10;99.90;;;;;;5073748;28;19995;-88
2023/12/28 11:49:47;;;;;;;;;;;17.00;99.90;;;;;;5072157;28;20436;-87
2023/12/28 11:52:23;;;;;;;;;;;17.00;99.90;;;;;;5072000;28;19940;-89
2023/12/28 11:54:50;;;;;;;;;;;17.00;99.90;;;;;;5073329;28;20364;-88
2023/12/28 11:57:15;;;;;;;;;;;17.10;99.90;;;;;;5071915;28;19972;-87
2023/12/28 11:59:41;;;;;;;;;;;17.00;99.90;;;;;;5072042;28;19962;-88
2023/12/28 12:02:08;;;;;;;;;;;17.00;99.90;;;;;;5075597;28;20007;-86
2023/12/28 12:04:34;;;;;;;;;;;16.90;99.90;;;;;;5089977;28;19912;-88
2023/12/28 12:07:03;;;;;;;;;;;16.90;99.90;;;;;;5097495;28;19933;-87
2023/12/28 12:09:34;;;;;;;;;;;16.90;99.90;;;;;;5095734;28;20003;-87
2023/12/28 12:12:03;;;;;;;;;;;16.90;99.90;;;;;;5096803;28;19908;-87
2023/12/28 12:14:30;;;;;;;;;;;16.90;99.90;;;;;;5099526;28;19908;-87
2023/12/28 12:16:57;;;;;;;;;;;16.90;99.90;;;;;;5095945;28;19908;-87
2023/12/28 12:19:23;;;;;;;;;;;16.80;99.90;;;;;;5097948;28;19914;-87
2023/12/28 12:21:49;;;;;;;;;;;16.80;99.90;;;;;;5096860;28;19953;-89
2023/12/28 12:24:17;;;;;;;;;;;16.80;99.90;;;;;;5096539;28;19971;-88
2023/12/28 12:26:43;;;;;;;;;;;16.80;99.90;;;;;;5096119;28;19918;-88
2023/12/28 12:29:09;;;;;;;;;;;16.90;99.90;;;;;;5097230;28;19916;-86
2023/12/28 12:31:37;;;;;;;;;;;17.00;99.90;;;;;;5096103;28;19962;-88
2023/12/28 12:34:03;;;;;;;;;;;17.00;99.90;;;;;;5097537;28;20062;-89
2023/12/28 12:36:29;;;;;;;;;;;16.90;99.90;;;;;;5095786;28;19924;-88
2023/12/28 12:38:56;;;;;;;;;;;16.90;99.90;;;;;;5095849;28;19913;-87
2023/12/28 12:41:22;;;;;;;;;;;16.90;99.90;;;;;;5097517;28;20358;-89
2023/12/28 12:43:49;;;;;;;;;;;16.90;99.90;;;;;;5095722;28;19927;-89
2023/12/28 12:46:15;;;;;;;;;;;17.00;99.90;;;;;;5097050;28;19915;-89
2023/12/28 12:48:41;;;;;;;;;;;16.90;99.90;;;;;;5097070;28;19916;-89
2023/12/28 12:51:08;;;;;;;;;;;16.80;99.90;;;;;;5100826;28;20315;-88
2023/12/28 12:53:34;;;;;;;;;;;16.60;99.90;;;;;;5097308;28;19959;-89
2023/12/28 12:56:00;;;;;;;;;;;16.50;99.90;;;;;;5096664;28;19908;-88
2023/12/28 12:58:27;;;;;;;;;;;16.40;99.90;;;;;;5097002;28;20327;-87
2023/12/28 13:00:52;;;;;;;;;;;16.20;99.90;;;;;;5095156;28;19908;-87
2023/12/28 13:03:20;;;;;;;;;;;16.10;99.90;;;;;;5091223;28;19916;-87
2023/12/28 13:05:45;;;;;;;;;;;16.20;99.90;;;;;;5076264;28;19947;-88
2023/12/28 13:08:11;;;;;;;;;;;16.30;99.90;;;;;;5075217;28;19962;-86
2023/12/28 13:10:37;;;;;;;;;;;16.30;99.90;;;;;;5076691;28;19908;-87
2023/12/28 13:13:07;;;;;;;;;;;16.30;99.90;;;;;;5074783;28;20011;-88
2023/12/28 13:15:34;;;;;;;;;;;16.30;99.90;;;;;;5075422;28;20272;-87
2023/12/28 13:18:00;;;;;;;;;;;16.40;99.90;;;;;;5074941;28;20043;-88
2023/12/28 13:20:26;;;;;;;;;;;16.40;99.90;;;;;;5076839;28;20339;-88
2023/12/28 13:22:51;;;;;;;;;;;16.50;99.90;;;;;;5075263;28;19916;-87
2023/12/28 13:25:17;;;;;;;;;;;16.50;99.90;;;;;;5074915;28;20268;-88
2023/12/28 13:27:43;;;;;;;;;;;16.60;99.90;;;;;;5076418;28;19927;-88
2023/12/28 13:30:09;;;;;;;;;;;16.60;99.90;;;;;;5076717;28;19970;-88
2023/12/28 13:32:35;;;;;;;;;;;16.60;99.90;;;;;;5075998;28;19916;-87
2023/12/28 13:35:01;;;;;;;;;;;16.60;99.90;;;;;;5094328;28;19908;-87
2023/12/28 13:37:26;;;;;;;;;;;16.70;99.90;;;;;;5095749;28;19942;-87
2023/12/28 13:39:52;;;;;;;;;;;16.60;99.90;;;;;;5094940;28;19962;-88
2023/12/28 13:42:18;;;;;;;;;;;16.60;99.90;;;;;;5094745;28;20016;-88
2023/12/28 13:44:44;;;;;;;;;;;16.60;99.90;;;;;;5094649;28;19935;-88
2023/12/28 13:47:10;;;;;;;;;;;16.60;99.90;;;;;;5095871;28;19908;-88
2023/12/28 13:49:36;;;;;;;;;;;16.60;99.90;;;;;;5094247;28;20000;-88
2023/12/28 13:52:03;;;;;;;;;;;16.70;99.90;;;;;;5093721;28;20364;-88
2023/12/28 13:54:29;;;;;;;;;;;16.70;99.90;;;;;;5092792;28;19948;-88
2023/12/28 13:56:58;;;;;;;;;;;16.70;99.90;;;;;;5093238;28;19920;-87
2023/12/28 13:59:25;;;;;;;;;;;16.70;99.90;;;;;;5093565;28;20050;-88
2023/12/28 14:01:51;;;;;;;;;;;16.70;99.90;;;;;;5093540;28;19908;-88
2023/12/28 14:04:17;;;;;;;;;;;16.60;99.90;;;;;;5082519;28;20003;-87
2023/12/28 14:06:43;;;;;;;;;;;16.50;99.90;;;;;;5074575;28;19938;-87
2023/12/28 14:09:08;;;;;;;;;;;16.50;99.90;;;;;;5073914;28;19999;-88
2023/12/28 14:11:34;;;;;;;;;;;16.50;99.90;;;;;;5074296;28;20437;-86